Terminal Aerodrome Forecast
Issued by NWS Quad Cities IA IL

Home | Current Version | Previous Version | Text Only | Print | Product List | Glossary On
Versions: 1 2 3 4 5 6 7 8 9 10 11 12 13 14 15 16 17 18 19 20 21 22 23 24 25
000
FTUS43 KDVN 280858 AAC
TAFMLI
TAF AMD
KMLI 280858Z 2809/2906 19010G15KT P6SM VCSH SCT018 OVC025
     FM281500 19012KT P6SM BKN040 PROB30 2821/2901 4SM TSRA BKN035CB
     FM290100 19007KT P6SM VCSH BKN040=

USA.gov is the U.S. government's official web portal to all federal, state and local government web resources and services.